Airfield :
LOGIN :

Register | Disclaimer

   EN    FR    IT 

 










Legend :    VFR   Marginal VFR   IFR   Intensive IFR   Very Intensive IFR
Visi :
Ceiling :
>= 8 km
>= 3000ft
5 to 8 km
1000 to 3000 ft
1500m to 5 km
500 to 1000 ft
800 to 1500m
200 to 500 ft
< 800m
< 200 ft
Symbols :   Thunderstorms  Fog  Heavy snow  Heavy precipitations  Wind > 20 kt
SIGMETs :     Misc.  Thunderstorms  Icing  Turbulence  Mountain Waves  Volcanic Ashes







- Airport Elevation : 622 ft
- IATA code : BRS
- Download approach charts


EGGD - Bristol Int.

CURRENT METAR :
  • 220550Z AUTO 27008KT 3800 RA SCT003/// BKN039/// //////TCU 07/07 Q1008

EXPIRED METARs :
  • 220520Z AUTO 27006KT 4800 RA FEW003/// SCT009/// BKN048/// //////TCU 07/07 Q1007
  • 220450Z AUTO 27010KT 5000 -RA BKN002 BKN026 OVC039 07/07 Q1007 RERA
  • 220420Z AUTO 27011KT 5000 -RA BKN003 OVC026 07/07 Q1007
  • 220350Z AUTO 26014KT 8000 BKN003 BKN007 OVC025 08/08 Q1007
  • 220320Z AUTO 26013KT 5000 BR OVC002 08/08 Q1006

TAF TAF EGGD
Valid from the 22 at 06:00 until the 23 at 06:00 UTC


220503Z 2206/2306 25011KT 8000 BKN003
BECMG 2206/2209 9999 FEW010 SCT020
TEMPO 2206/2208 4000 RA BR BKN002
PROB30
TEMPO 2206/2207 0300 RADZ FG BKN000
BECMG 2218/2221 19004KT
PROB30
TEMPO 2218/2221 8000 -RA BKN010
BECMG 2303/2306 18014KT 8000 -RA BKN008
TEMPO 2303/2306 3000 RA BKN002
PROB40
TEMPO 2303/2306 19018G28KT 0300 RADZ FG BKN000
ATIS : +44 1275 473 666
No reported NOTAMs for that airfield.
2 SIGMETs reported for the London FIR (EGTT) :
 
Severe turbulence
EGTT SIGMET 02 VALID 220600/220900 EGRR
EGTT LONDON FIR SEV TURB OBS WI N5102 W00615 - N5008 W00406 - N4928 W00514 - N5021 W00707 - N5102 W00615 FL300/390 MOV E 15KT WKN=
Severe mountain waves
EGTT SIGMET 01 VALID 220230/220630 EGRR
EGTT LONDON FIR SEV MTW FCST WI N5500 W00348 - N5500 E00025 - N5320 E00143 - N5309 W00144 - N5500 W00348 FL040/270 STNR NC=



MET'MAP, your aeronautical weather chart ! - Copyright ORBIFLY December 2007 - Disclaimer

ORBIFLY MET'MAP TEAM :

Programming & Development : Alexandra Zaïnal
Concept & Development : Baudouin d'Aumeries
Co-Development & Prog : Marc-Olivier Méhu
Technical & hardware support : Manuel Goepfert

Contact : metmap@orbifly.com




SOURCES & CREDITS :

   NOAA